sensor_id;sensor_type;location;lat;lon;timestamp;temperature;humidity
43995;DHT22;51687;52.160;5.298;2022-09-09T00:00:25;22.90;57.30
43995;DHT22;51687;52.160;5.298;2022-09-09T00:03:14;23.00;58.10
43995;DHT22;51687;52.160;5.298;2022-09-09T00:05:55;23.00;57.30
43995;DHT22;51687;52.160;5.298;2022-09-09T00:11:05;23.00;57.10
43995;DHT22;51687;52.160;5.298;2022-09-09T00:13:50;23.00;57.00
43995;DHT22;51687;52.160;5.298;2022-09-09T00:16:24;23.10;56.80
43995;DHT22;51687;52.160;5.298;2022-09-09T00:19:11;23.00;56.60
43995;DHT22;51687;52.160;5.298;2022-09-09T00:21:49;23.10;57.00
43995;DHT22;51687;52.160;5.298;2022-09-09T00:24:29;23.00;57.50
43995;DHT22;51687;52.160;5.298;2022-09-09T00:27:08;23.00;56.90
43995;DHT22;51687;52.160;5.298;2022-09-09T00:29:44;23.00;56.70
43995;DHT22;51687;52.160;5.298;2022-09-09T00:32:18;23.00;56.60
43995;DHT22;51687;52.160;5.298;2022-09-09T00:34:56;23.00;57.00
43995;DHT22;51687;52.160;5.298;2022-09-09T00:37:25;23.00;56.90
43995;DHT22;51687;52.160;5.298;2022-09-09T00:39:56;23.00;56.90
43995;DHT22;51687;52.160;5.298;2022-09-09T00:42:35;23.00;57.00
43995;DHT22;51687;52.160;5.298;2022-09-09T00:47:54;23.00;57.00
43995;DHT22;51687;52.160;5.298;2022-09-09T00:56:00;23.00;56.70
43995;DHT22;51687;52.160;5.298;2022-09-09T00:58:29;23.00;57.40
43995;DHT22;51687;52.160;5.298;2022-09-09T01:01:07;23.00;56.70
43995;DHT22;51687;52.160;5.298;2022-09-09T01:03:39;23.00;56.80
43995;DHT22;51687;52.160;5.298;2022-09-09T01:06:23;23.00;56.80
43995;DHT22;51687;52.160;5.298;2022-09-09T01:14:20;22.90;56.10
43995;DHT22;51687;52.160;5.298;2022-09-09T01:16:52;23.00;56.30
43995;DHT22;51687;52.160;5.298;2022-09-09T01:22:37;23.00;56.70
43995;DHT22;51687;52.160;5.298;2022-09-09T01:25:56;23.00;56.30
43995;DHT22;51687;52.160;5.298;2022-09-09T01:28:20;22.90;56.50
43995;DHT22;51687;52.160;5.298;2022-09-09T01:30:49;22.90;56.10
43995;DHT22;51687;52.160;5.298;2022-09-09T01:33:17;22.90;56.00
43995;DHT22;51687;52.160;5.298;2022-09-09T01:36:00;22.90;56.00
43995;DHT22;51687;52.160;5.298;2022-09-09T01:38:30;22.90;56.10
43995;DHT22;51687;52.160;5.298;2022-09-09T01:40:58;23.00;56.20
43995;DHT22;51687;52.160;5.298;2022-09-09T01:43:25;23.00;56.00
43995;DHT22;51687;52.160;5.298;2022-09-09T01:45:54;23.00;55.80
43995;DHT22;51687;52.160;5.298;2022-09-09T01:48:24;23.00;55.70
43995;DHT22;51687;52.160;5.298;2022-09-09T01:50:51;23.00;55.70
43995;DHT22;51687;52.160;5.298;2022-09-09T01:53:19;22.90;55.70
43995;DHT22;51687;52.160;5.298;2022-09-09T01:56:30;22.90;55.80
43995;DHT22;51687;52.160;5.298;2022-09-09T02:02:13;22.90;55.70
43995;DHT22;51687;52.160;5.298;2022-09-09T02:04:54;23.00;58.10
43995;DHT22;51687;52.160;5.298;2022-09-09T02:10:13;23.00;55.60
43995;DHT22;51687;52.160;5.298;2022-09-09T02:12:48;23.00;55.00
43995;DHT22;51687;52.160;5.298;2022-09-09T02:15:28;23.00;55.20
43995;DHT22;51687;52.160;5.298;2022-09-09T02:17:58;23.00;55.20
43995;DHT22;51687;52.160;5.298;2022-09-09T02:20:26;22.90;55.40
43995;DHT22;51687;52.160;5.298;2022-09-09T02:22:59;22.90;55.30
43995;DHT22;51687;52.160;5.298;2022-09-09T02:25:28;23.00;55.30
43995;DHT22;51687;52.160;5.298;2022-09-09T02:27:56;23.00;55.00
43995;DHT22;51687;52.160;5.298;2022-09-09T02:30:27;23.00;55.10
43995;DHT22;51687;52.160;5.298;2022-09-09T02:32:57;23.00;55.00
43995;DHT22;51687;52.160;5.298;2022-09-09T02:35:26;22.90;55.30
43995;DHT22;51687;52.160;5.298;2022-09-09T02:37:57;23.00;55.10
43995;DHT22;51687;52.160;5.298;2022-09-09T02:40:25;23.00;54.70
43995;DHT22;51687;52.160;5.298;2022-09-09T02:42:54;23.00;55.00
43995;DHT22;51687;52.160;5.298;2022-09-09T02:45:27;23.00;55.00
43995;DHT22;51687;52.160;5.298;2022-09-09T02:48:36;23.00;54.80
43995;DHT22;51687;52.160;5.298;2022-09-09T02:54:29;22.90;54.90
43995;DHT22;51687;52.160;5.298;2022-09-09T02:59:35;22.90;54.90
43995;DHT22;51687;52.160;5.298;2022-09-09T03:02:02;23.00;54.80
43995;DHT22;51687;52.160;5.298;2022-09-09T03:04:29;23.00;54.70
43995;DHT22;51687;52.160;5.298;2022-09-09T03:06:58;22.90;54.70
43995;DHT22;51687;52.160;5.298;2022-09-09T03:09:25;23.00;54.70
43995;DHT22;51687;52.160;5.298;2022-09-09T03:11:52;23.00;54.70
43995;DHT22;51687;52.160;5.298;2022-09-09T03:14:19;22.90;54.70
43995;DHT22;51687;52.160;5.298;2022-09-09T03:16:47;23.00;54.80
43995;DHT22;51687;52.160;5.298;2022-09-09T03:19:15;23.00;54.70
43995;DHT22;51687;52.160;5.298;2022-09-09T03:21:41;23.00;54.60
43995;DHT22;51687;52.160;5.298;2022-09-09T03:24:08;23.00;54.50
43995;DHT22;51687;52.160;5.298;2022-09-09T03:26:36;23.00;54.50
43995;DHT22;51687;52.160;5.298;2022-09-09T03:29:04;23.00;54.50
43995;DHT22;51687;52.160;5.298;2022-09-09T03:31:34;23.00;55.10
43995;DHT22;51687;52.160;5.298;2022-09-09T03:34:02;23.00;54.30
43995;DHT22;51687;52.160;5.298;2022-09-09T03:36:29;23.00;54.80
43995;DHT22;51687;52.160;5.298;2022-09-09T03:38:56;23.10;54.50
43995;DHT22;51687;52.160;5.298;2022-09-09T03:41:23;23.10;54.10
43995;DHT22;51687;52.160;5.298;2022-09-09T03:43:50;23.10;54.00
43995;DHT22;51687;52.160;5.298;2022-09-09T03:46:22;23.10;54.10
43995;DHT22;51687;52.160;5.298;2022-09-09T03:48:49;23.00;54.20
43995;DHT22;51687;52.160;5.298;2022-09-09T03:51:15;23.00;54.00
43995;DHT22;51687;52.160;5.298;2022-09-09T03:53:42;23.00;54.40
43995;DHT22;51687;52.160;5.298;2022-09-09T03:56:09;23.00;54.20
43995;DHT22;51687;52.160;5.298;2022-09-09T03:58:37;23.00;54.20
43995;DHT22;51687;52.160;5.298;2022-09-09T04:01:10;22.90;54.00
43995;DHT22;51687;52.160;5.298;2022-09-09T04:03:37;23.00;54.10
43995;DHT22;51687;52.160;5.298;2022-09-09T04:06:05;23.00;54.40
43995;DHT22;51687;52.160;5.298;2022-09-09T04:08:34;23.00;54.10
43995;DHT22;51687;52.160;5.298;2022-09-09T04:11:03;23.00;54.20
43995;DHT22;51687;52.160;5.298;2022-09-09T04:13:34;22.90;54.20
43995;DHT22;51687;52.160;5.298;2022-09-09T04:16:02;22.90;54.10
43995;DHT22;51687;52.160;5.298;2022-09-09T04:18:30;22.90;54.30
43995;DHT22;51687;52.160;5.298;2022-09-09T04:20:58;22.90;54.20
43995;DHT22;51687;52.160;5.298;2022-09-09T04:23:26;22.90;54.20
43995;DHT22;51687;52.160;5.298;2022-09-09T04:25:56;22.90;54.30
43995;DHT22;51687;52.160;5.298;2022-09-09T04:28:27;23.00;54.30
43995;DHT22;51687;52.160;5.298;2022-09-09T04:30:55;23.00;54.30
43995;DHT22;51687;52.160;5.298;2022-09-09T04:33:23;23.00;54.30
43995;DHT22;51687;52.160;5.298;2022-09-09T04:35:51;23.00;56.40
43995;DHT22;51687;52.160;5.298;2022-09-09T04:38:20;23.00;54.50
43995;DHT22;51687;52.160;5.298;2022-09-09T04:40:50;22.90;54.40
43995;DHT22;51687;52.160;5.298;2022-09-09T04:43:18;22.90;54.30
43995;DHT22;51687;52.160;5.298;2022-09-09T04:45:49;22.90;54.70
43995;DHT22;51687;52.160;5.298;2022-09-09T04:48:18;22.90;54.60
43995;DHT22;51687;52.160;5.298;2022-09-09T04:51:00;22.90;54.80
43995;DHT22;51687;52.160;5.298;2022-09-09T04:53:28;22.90;54.50
43995;DHT22;51687;52.160;5.298;2022-09-09T04:56:21;22.90;54.70
43995;DHT22;51687;52.160;5.298;2022-09-09T04:58:48;22.90;55.30
43995;DHT22;51687;52.160;5.298;2022-09-09T05:01:19;22.90;54.50
43995;DHT22;51687;52.160;5.298;2022-09-09T05:03:47;22.90;54.20
43995;DHT22;51687;52.160;5.298;2022-09-09T05:06:16;22.90;54.50
43995;DHT22;51687;52.160;5.298;2022-09-09T05:08:44;22.90;54.20
43995;DHT22;51687;52.160;5.298;2022-09-09T05:13:43;22.90;54.30
43995;DHT22;51687;52.160;5.298;2022-09-09T05:16:12;22.90;54.40
43995;DHT22;51687;52.160;5.298;2022-09-09T05:18:40;22.90;54.40
43995;DHT22;51687;52.160;5.298;2022-09-09T05:21:10;22.80;54.40
43995;DHT22;51687;52.160;5.298;2022-09-09T05:23:37;22.80;54.50
43995;DHT22;51687;52.160;5.298;2022-09-09T05:26:05;22.80;54.60
43995;DHT22;51687;52.160;5.298;2022-09-09T05:28:34;22.80;54.70
43995;DHT22;51687;52.160;5.298;2022-09-09T05:31:12;22.90;54.80
43995;DHT22;51687;52.160;5.298;2022-09-09T05:33:41;22.90;55.20
43995;DHT22;51687;52.160;5.298;2022-09-09T05:36:12;22.90;54.90
43995;DHT22;51687;52.160;5.298;2022-09-09T05:38:42;22.90;54.70
43995;DHT22;51687;52.160;5.298;2022-09-09T05:41:10;23.00;54.60
43995;DHT22;51687;52.160;5.298;2022-09-09T05:43:38;23.00;54.70
43995;DHT22;51687;52.160;5.298;2022-09-09T05:46:10;23.00;55.00
43995;DHT22;51687;52.160;5.298;2022-09-09T05:48:39;23.00;55.00
43995;DHT22;51687;52.160;5.298;2022-09-09T05:51:08;23.00;54.80
43995;DHT22;51687;52.160;5.298;2022-09-09T05:53:35;23.00;54.80
43995;DHT22;51687;52.160;5.298;2022-09-09T05:56:07;23.00;54.80
43995;DHT22;51687;52.160;5.298;2022-09-09T05:58:37;23.00;55.00
43995;DHT22;51687;52.160;5.298;2022-09-09T06:01:07;23.00;55.00
43995;DHT22;51687;52.160;5.298;2022-09-09T06:03:36;23.00;55.40
43995;DHT22;51687;52.160;5.298;2022-09-09T06:06:05;23.00;55.50
43995;DHT22;51687;52.160;5.298;2022-09-09T06:08:36;23.00;55.20
43995;DHT22;51687;52.160;5.298;2022-09-09T06:11:22;23.00;55.40
43995;DHT22;51687;52.160;5.298;2022-09-09T06:13:49;22.90;56.00
43995;DHT22;51687;52.160;5.298;2022-09-09T06:16:23;22.90;55.50
43995;DHT22;51687;52.160;5.298;2022-09-09T06:18:51;23.00;55.70
43995;DHT22;51687;52.160;5.298;2022-09-09T06:21:19;22.90;55.70
43995;DHT22;51687;52.160;5.298;2022-09-09T06:23:47;23.00;56.10
43995;DHT22;51687;52.160;5.298;2022-09-09T06:26:22;22.90;56.30
43995;DHT22;51687;52.160;5.298;2022-09-09T06:28:50;23.00;56.10
43995;DHT22;51687;52.160;5.298;2022-09-09T06:31:20;22.90;55.90
43995;DHT22;51687;52.160;5.298;2022-09-09T06:33:55;22.80;56.50
43995;DHT22;51687;52.160;5.298;2022-09-09T06:38:50;22.80;56.30
43995;DHT22;51687;52.160;5.298;2022-09-09T06:41:19;22.60;57.20
43995;DHT22;51687;52.160;5.298;2022-09-09T06:43:47;22.60;57.60
43995;DHT22;51687;52.160;5.298;2022-09-09T06:46:22;22.50;57.80
43995;DHT22;51687;52.160;5.298;2022-09-09T06:56:21;22.50;57.80
43995;DHT22;51687;52.160;5.298;2022-09-09T06:58:55;22.30;58.80
43995;DHT22;51687;52.160;5.298;2022-09-09T07:01:27;22.20;59.10
43995;DHT22;51687;52.160;5.298;2022-09-09T07:09:01;22.10;60.20
43995;DHT22;51687;52.160;5.298;2022-09-09T07:21:28;21.90;60.30
43995;DHT22;51687;52.160;5.298;2022-09-09T07:23:57;21.90;61.90
43995;DHT22;51687;52.160;5.298;2022-09-09T07:31:25;21.90;61.30
43995;DHT22;51687;52.160;5.298;2022-09-09T07:36:21;21.70;61.40
43995;DHT22;51687;52.160;5.298;2022-09-09T07:38:53;21.60;61.80
43995;DHT22;51687;52.160;5.298;2022-09-09T07:41:30;21.60;62.10
43995;DHT22;51687;52.160;5.298;2022-09-09T07:43:59;21.60;62.40
43995;DHT22;51687;52.160;5.298;2022-09-09T07:46:26;21.50;62.50
43995;DHT22;51687;52.160;5.298;2022-09-09T07:48:55;21.50;62.80
43995;DHT22;51687;52.160;5.298;2022-09-09T07:51:25;21.50;62.70
43995;DHT22;51687;52.160;5.298;2022-09-09T07:53:59;21.50;62.80
43995;DHT22;51687;52.160;5.298;2022-09-09T07:56:28;21.50;62.80
43995;DHT22;51687;52.160;5.298;2022-09-09T07:58:55;21.50;63.00
43995;DHT22;51687;52.160;5.298;2022-09-09T08:01:30;21.50;63.00
43995;DHT22;51687;52.160;5.298;2022-09-09T08:04:02;21.40;63.30
43995;DHT22;51687;52.160;5.298;2022-09-09T08:06:32;21.50;64.00
43995;DHT22;51687;52.160;5.298;2022-09-09T08:09:00;21.50;63.80
43995;DHT22;51687;52.160;5.298;2022-09-09T08:11:28;21.50;63.80
43995;DHT22;51687;52.160;5.298;2022-09-09T08:13:55;21.40;63.20
43995;DHT22;51687;52.160;5.298;2022-09-09T08:16:33;21.50;63.40
43995;DHT22;51687;52.160;5.298;2022-09-09T08:19:00;21.50;63.70
43995;DHT22;51687;52.160;5.298;2022-09-09T08:21:29;21.50;63.70
43995;DHT22;51687;52.160;5.298;2022-09-09T08:23:58;21.50;63.10
43995;DHT22;51687;52.160;5.298;2022-09-09T08:26:29;21.50;63.10
43995;DHT22;51687;52.160;5.298;2022-09-09T08:28:58;21.40;62.50
43995;DHT22;51687;52.160;5.298;2022-09-09T08:31:34;21.40;62.60
43995;DHT22;51687;52.160;5.298;2022-09-09T08:34:02;21.40;63.00
43995;DHT22;51687;52.160;5.298;2022-09-09T08:36:33;21.40;63.50
43995;DHT22;51687;52.160;5.298;2022-09-09T08:39:01;21.40;62.90
43995;DHT22;51687;52.160;5.298;2022-09-09T08:41:41;21.40;63.20
43995;DHT22;51687;52.160;5.298;2022-09-09T08:53:10;21.40;63.10
43995;DHT22;51687;52.160;5.298;2022-09-09T08:55:56;21.40;63.50
43995;DHT22;51687;52.160;5.298;2022-09-09T08:58:25;21.40;62.60
43995;DHT22;51687;52.160;5.298;2022-09-09T09:01:16;21.40;62.80
43995;DHT22;51687;52.160;5.298;2022-09-09T09:12:22;21.40;62.70
43995;DHT22;51687;52.160;5.298;2022-09-09T09:14:49;21.30;63.00
43995;DHT22;51687;52.160;5.298;2022-09-09T09:17:21;21.30;62.50
43995;DHT22;51687;52.160;5.298;2022-09-09T09:19:50;21.30;62.40
43995;DHT22;51687;52.160;5.298;2022-09-09T09:22:43;21.30;62.80
43995;DHT22;51687;52.160;5.298;2022-09-09T09:25:22;21.30;62.80
43995;DHT22;51687;52.160;5.298;2022-09-09T09:28:15;21.30;63.00
43995;DHT22;51687;52.160;5.298;2022-09-09T09:31:03;21.30;62.90
43995;DHT22;51687;52.160;5.298;2022-09-09T09:36:08;21.30;63.20
43995;DHT22;51687;52.160;5.298;2022-09-09T09:38:36;21.30;63.00
43995;DHT22;51687;52.160;5.298;2022-09-09T09:41:34;21.30;62.90
43995;DHT22;51687;52.160;5.298;2022-09-09T09:44:03;21.30;62.70
43995;DHT22;51687;52.160;5.298;2022-09-09T09:46:31;21.30;63.10
43995;DHT22;51687;52.160;5.298;2022-09-09T09:49:02;21.30;63.50
43995;DHT22;51687;52.160;5.298;2022-09-09T09:51:30;21.30;62.70
43995;DHT22;51687;52.160;5.298;2022-09-09T09:56:40;21.30;63.00
43995;DHT22;51687;52.160;5.298;2022-09-09T09:59:34;21.30;63.10
43995;DHT22;51687;52.160;5.298;2022-09-09T10:02:23;21.30;63.60
43995;DHT22;51687;52.160;5.298;2022-09-09T10:19:16;21.30;65.80
43995;DHT22;51687;52.160;5.298;2022-09-09T10:22:12;21.30;65.90
43995;DHT22;51687;52.160;5.298;2022-09-09T10:25:00;21.40;65.80
43995;DHT22;51687;52.160;5.298;2022-09-09T10:33:14;21.40;65.90
43995;DHT22;51687;52.160;5.298;2022-09-09T10:38:30;21.40;66.00
43995;DHT22;51687;52.160;5.298;2022-09-09T10:41:09;21.30;66.20
43995;DHT22;51687;52.160;5.298;2022-09-09T10:55:26;21.40;68.10
43995;DHT22;51687;52.160;5.298;2022-09-09T10:57:58;21.40;68.60
43995;DHT22;51687;52.160;5.298;2022-09-09T11:03:04;21.40;67.30
43995;DHT22;51687;52.160;5.298;2022-09-09T11:05:55;21.40;66.80
43995;DHT22;51687;52.160;5.298;2022-09-09T11:08:25;21.40;68.00
43995;DHT22;51687;52.160;5.298;2022-09-09T11:13:55;21.50;67.80
43995;DHT22;51687;52.160;5.298;2022-09-09T11:16:33;21.50;67.60
43995;DHT22;51687;52.160;5.298;2022-09-09T11:21:49;21.50;67.50
43995;DHT22;51687;52.160;5.298;2022-09-09T11:40:32;21.40;67.30
43995;DHT22;51687;52.160;5.298;2022-09-09T11:43:14;21.50;67.30
43995;DHT22;51687;52.160;5.298;2022-09-09T11:45:51;21.50;67.50
43995;DHT22;51687;52.160;5.298;2022-09-09T11:48:59;21.40;66.80
43995;DHT22;51687;52.160;5.298;2022-09-09T11:51:30;21.40;65.40
43995;DHT22;51687;52.160;5.298;2022-09-09T11:53:59;21.40;66.00
43995;DHT22;51687;52.160;5.298;2022-09-09T11:56:32;21.40;66.30
43995;DHT22;51687;52.160;5.298;2022-09-09T11:59:03;21.40;66.20
43995;DHT22;51687;52.160;5.298;2022-09-09T12:04:26;21.40;67.10
43995;DHT22;51687;52.160;5.298;2022-09-09T12:07:01;21.30;68.10
43995;DHT22;51687;52.160;5.298;2022-09-09T12:09:52;21.30;67.80
43995;DHT22;51687;52.160;5.298;2022-09-09T12:12:23;21.30;67.90
43995;DHT22;51687;52.160;5.298;2022-09-09T12:17:43;21.30;68.50
43995;DHT22;51687;52.160;5.298;2022-09-09T12:20:17;21.40;68.70
43995;DHT22;51687;52.160;5.298;2022-09-09T12:23:05;21.40;69.00
43995;DHT22;51687;52.160;5.298;2022-09-09T12:25:41;21.30;69.10
43995;DHT22;51687;52.160;5.298;2022-09-09T12:28:17;21.40;69.20
43995;DHT22;51687;52.160;5.298;2022-09-09T12:31:15;21.40;68.80
43995;DHT22;51687;52.160;5.298;2022-09-09T12:33:45;21.40;68.40
43995;DHT22;51687;52.160;5.298;2022-09-09T12:36:18;21.30;68.00
43995;DHT22;51687;52.160;5.298;2022-09-09T12:38:46;21.30;68.70
43995;DHT22;51687;52.160;5.298;2022-09-09T12:41:27;21.20;68.70
43995;DHT22;51687;52.160;5.298;2022-09-09T12:44:06;21.20;69.30
43995;DHT22;51687;52.160;5.298;2022-09-09T12:46:39;21.30;69.00
43995;DHT22;51687;52.160;5.298;2022-09-09T12:49:35;21.20;69.50
43995;DHT22;51687;52.160;5.298;2022-09-09T12:52:05;21.30;69.50
43995;DHT22;51687;52.160;5.298;2022-09-09T12:54:35;21.20;69.90
43995;DHT22;51687;52.160;5.298;2022-09-09T12:57:03;21.20;70.30
43995;DHT22;51687;52.160;5.298;2022-09-09T12:59:39;21.20;69.80
43995;DHT22;51687;52.160;5.298;2022-09-09T13:02:24;21.20;70.30
43995;DHT22;51687;52.160;5.298;2022-09-09T13:04:52;21.20;70.40
43995;DHT22;51687;52.160;5.298;2022-09-09T13:07:20;21.20;69.90
43995;DHT22;51687;52.160;5.298;2022-09-09T13:09:48;21.30;70.60
43995;DHT22;51687;52.160;5.298;2022-09-09T13:12:23;21.20;70.00
43995;DHT22;51687;52.160;5.298;2022-09-09T13:14:52;21.20;69.90
43995;DHT22;51687;52.160;5.298;2022-09-09T13:17:22;21.20;70.30
43995;DHT22;51687;52.160;5.298;2022-09-09T13:19:50;21.20;69.50
43995;DHT22;51687;52.160;5.298;2022-09-09T13:22:31;21.20;69.30
43995;DHT22;51687;52.160;5.298;2022-09-09T13:25:01;21.20;69.00
43995;DHT22;51687;52.160;5.298;2022-09-09T13:27:35;21.20;69.10
43995;DHT22;51687;52.160;5.298;2022-09-09T13:30:26;21.20;69.00
43995;DHT22;51687;52.160;5.298;2022-09-09T13:33:23;21.10;68.60
43995;DHT22;51687;52.160;5.298;2022-09-09T13:35:57;21.10;68.40
43995;DHT22;51687;52.160;5.298;2022-09-09T13:38:24;21.10;69.20
43995;DHT22;51687;52.160;5.298;2022-09-09T13:41:04;21.10;69.40
43995;DHT22;51687;52.160;5.298;2022-09-09T13:43:36;21.10;70.00
43995;DHT22;51687;52.160;5.298;2022-09-09T13:46:28;21.10;70.50
43995;DHT22;51687;52.160;5.298;2022-09-09T13:49:18;21.20;70.60
43995;DHT22;51687;52.160;5.298;2022-09-09T13:51:50;21.20;70.60
43995;DHT22;51687;52.160;5.298;2022-09-09T13:54:20;21.20;70.50
43995;DHT22;51687;52.160;5.298;2022-09-09T13:56:47;21.20;70.00
43995;DHT22;51687;52.160;5.298;2022-09-09T13:59:17;21.20;69.60
43995;DHT22;51687;52.160;5.298;2022-09-09T14:01:46;21.20;69.90
43995;DHT22;51687;52.160;5.298;2022-09-09T14:04:13;21.20;69.90
43995;DHT22;51687;52.160;5.298;2022-09-09T14:06:40;21.20;69.70
43995;DHT22;51687;52.160;5.298;2022-09-09T14:09:09;21.20;69.80
43995;DHT22;51687;52.160;5.298;2022-09-09T14:11:36;21.20;70.00
43995;DHT22;51687;52.160;5.298;2022-09-09T14:14:02;21.20;69.90
43995;DHT22;51687;52.160;5.298;2022-09-09T14:16:29;21.20;70.20
43995;DHT22;51687;52.160;5.298;2022-09-09T14:18:56;21.20;70.10
43995;DHT22;51687;52.160;5.298;2022-09-09T14:21:24;21.20;69.90
43995;DHT22;51687;52.160;5.298;2022-09-09T14:23:51;21.30;70.10
43995;DHT22;51687;52.160;5.298;2022-09-09T14:26:20;21.20;69.70
43995;DHT22;51687;52.160;5.298;2022-09-09T14:28:47;21.20;70.20
43995;DHT22;51687;52.160;5.298;2022-09-09T14:31:21;21.20;69.90
43995;DHT22;51687;52.160;5.298;2022-09-09T14:33:48;21.30;70.00
43995;DHT22;51687;52.160;5.298;2022-09-09T14:36:15;21.20;70.30
43995;DHT22;51687;52.160;5.298;2022-09-09T14:38:42;21.20;70.70
43995;DHT22;51687;52.160;5.298;2022-09-09T14:41:10;21.20;70.80
43995;DHT22;51687;52.160;5.298;2022-09-09T14:43:38;21.20;70.40
43995;DHT22;51687;52.160;5.298;2022-09-09T14:46:13;21.20;70.70
43995;DHT22;51687;52.160;5.298;2022-09-09T14:48:40;21.20;71.00
43995;DHT22;51687;52.160;5.298;2022-09-09T14:51:09;21.30;71.10
43995;DHT22;51687;52.160;5.298;2022-09-09T14:53:36;21.30;71.20
43995;DHT22;51687;52.160;5.298;2022-09-09T14:56:06;21.30;71.70
43995;DHT22;51687;52.160;5.298;2022-09-09T14:58:33;21.30;71.30
43995;DHT22;51687;52.160;5.298;2022-09-09T15:01:09;21.30;72.00
43995;DHT22;51687;52.160;5.298;2022-09-09T15:03:40;21.30;72.30
43995;DHT22;51687;52.160;5.298;2022-09-09T15:06:08;21.30;72.40
43995;DHT22;51687;52.160;5.298;2022-09-09T15:08:36;21.30;72.30
43995;DHT22;51687;52.160;5.298;2022-09-09T15:11:09;21.30;72.60
43995;DHT22;51687;52.160;5.298;2022-09-09T15:13:37;21.30;71.80
43995;DHT22;51687;52.160;5.298;2022-09-09T15:16:06;21.30;71.60
43995;DHT22;51687;52.160;5.298;2022-09-09T15:18:33;21.30;71.60
43995;DHT22;51687;52.160;5.298;2022-09-09T15:21:00;21.30;71.90
43995;DHT22;51687;52.160;5.298;2022-09-09T15:23:34;21.30;71.50
43995;DHT22;51687;52.160;5.298;2022-09-09T15:26:02;21.30;71.20
43995;DHT22;51687;52.160;5.298;2022-09-09T15:28:39;21.30;71.00
43995;DHT22;51687;52.160;5.298;2022-09-09T15:31:07;21.30;70.50
43995;DHT22;51687;52.160;5.298;2022-09-09T15:33:34;21.30;70.60
43995;DHT22;51687;52.160;5.298;2022-09-09T15:38:44;21.30;69.70
43995;DHT22;51687;52.160;5.298;2022-09-09T15:41:12;21.20;69.10
43995;DHT22;51687;52.160;5.298;2022-09-09T15:43:50;21.20;69.00
43995;DHT22;51687;52.160;5.298;2022-09-09T15:48:44;21.20;68.90
43995;DHT22;51687;52.160;5.298;2022-09-09T15:51:14;21.20;68.70
43995;DHT22;51687;52.160;5.298;2022-09-09T15:54:01;21.20;68.80
43995;DHT22;51687;52.160;5.298;2022-09-09T15:56:29;21.20;68.70
43995;DHT22;51687;52.160;5.298;2022-09-09T15:59:00;21.20;68.50
43995;DHT22;51687;52.160;5.298;2022-09-09T16:01:27;21.20;68.50
43995;DHT22;51687;52.160;5.298;2022-09-09T16:03:54;21.20;68.30
43995;DHT22;51687;52.160;5.298;2022-09-09T16:06:23;21.20;68.80
43995;DHT22;51687;52.160;5.298;2022-09-09T16:08:52;21.30;69.30
43995;DHT22;51687;52.160;5.298;2022-09-09T16:11:22;21.30;69.20
43995;DHT22;51687;52.160;5.298;2022-09-09T16:13:50;21.40;68.50
43995;DHT22;51687;52.160;5.298;2022-09-09T16:16:20;21.40;68.90
43995;DHT22;51687;52.160;5.298;2022-09-09T16:18:53;21.40;68.10
43995;DHT22;51687;52.160;5.298;2022-09-09T16:21:23;21.40;67.50
43995;DHT22;51687;52.160;5.298;2022-09-09T16:23:53;21.30;67.30
43995;DHT22;51687;52.160;5.298;2022-09-09T16:26:22;21.30;66.60
43995;DHT22;51687;52.160;5.298;2022-09-09T16:28:49;21.30;66.80
43995;DHT22;51687;52.160;5.298;2022-09-09T16:31:18;21.30;66.50
43995;DHT22;51687;52.160;5.298;2022-09-09T16:33:46;21.30;66.60
43995;DHT22;51687;52.160;5.298;2022-09-09T16:36:16;21.30;66.60
43995;DHT22;51687;52.160;5.298;2022-09-09T16:38:43;21.40;66.60
43995;DHT22;51687;52.160;5.298;2022-09-09T16:41:12;21.40;66.50
43995;DHT22;51687;52.160;5.298;2022-09-09T16:43:39;21.40;66.80
43995;DHT22;51687;52.160;5.298;2022-09-09T16:46:16;21.40;66.10
43995;DHT22;51687;52.160;5.298;2022-09-09T16:48:46;21.40;66.00
43995;DHT22;51687;52.160;5.298;2022-09-09T16:51:30;21.40;66.10
43995;DHT22;51687;52.160;5.298;2022-09-09T16:54:02;21.40;66.10
43995;DHT22;51687;52.160;5.298;2022-09-09T16:56:31;21.50;66.20
43995;DHT22;51687;52.160;5.298;2022-09-09T16:59:06;21.50;66.60
43995;DHT22;51687;52.160;5.298;2022-09-09T17:01:35;21.50;66.30
43995;DHT22;51687;52.160;5.298;2022-09-09T17:04:07;21.50;66.30
43995;DHT22;51687;52.160;5.298;2022-09-09T17:06:35;21.50;66.80
43995;DHT22;51687;52.160;5.298;2022-09-09T17:09:06;21.40;66.50
43995;DHT22;51687;52.160;5.298;2022-09-09T17:11:34;21.50;66.90
43995;DHT22;51687;52.160;5.298;2022-09-09T17:14:00;21.50;66.20
43995;DHT22;51687;52.160;5.298;2022-09-09T17:16:29;21.50;66.30
43995;DHT22;51687;52.160;5.298;2022-09-09T17:18:57;21.50;66.70
43995;DHT22;51687;52.160;5.298;2022-09-09T17:21:26;21.50;66.70
43995;DHT22;51687;52.160;5.298;2022-09-09T17:23:54;21.50;66.90
43995;DHT22;51687;52.160;5.298;2022-09-09T17:26:24;21.50;67.10
43995;DHT22;51687;52.160;5.298;2022-09-09T17:28:54;21.60;66.80
43995;DHT22;51687;52.160;5.298;2022-09-09T17:31:26;21.60;67.20
43995;DHT22;51687;52.160;5.298;2022-09-09T17:33:54;21.60;66.80
43995;DHT22;51687;52.160;5.298;2022-09-09T17:36:24;21.60;66.80
43995;DHT22;51687;52.160;5.298;2022-09-09T17:38:51;21.60;67.10
43995;DHT22;51687;52.160;5.298;2022-09-09T17:41:21;21.60;67.60
43995;DHT22;51687;52.160;5.298;2022-09-09T17:43:48;21.60;67.40
43995;DHT22;51687;52.160;5.298;2022-09-09T17:46:19;21.60;67.30
43995;DHT22;51687;52.160;5.298;2022-09-09T17:48:51;21.60;67.30
43995;DHT22;51687;52.160;5.298;2022-09-09T17:51:21;21.60;66.90
43995;DHT22;51687;52.160;5.298;2022-09-09T17:53:52;21.60;67.00
43995;DHT22;51687;52.160;5.298;2022-09-09T17:56:22;21.60;66.80
43995;DHT22;51687;52.160;5.298;2022-09-09T17:58:50;21.60;67.20
43995;DHT22;51687;52.160;5.298;2022-09-09T18:01:20;21.60;67.20
43995;DHT22;51687;52.160;5.298;2022-09-09T18:03:48;21.70;67.00
43995;DHT22;51687;52.160;5.298;2022-09-09T18:06:20;21.60;67.20
43995;DHT22;51687;52.160;5.298;2022-09-09T18:08:50;21.60;67.60
43995;DHT22;51687;52.160;5.298;2022-09-09T18:11:19;21.60;67.70
43995;DHT22;51687;52.160;5.298;2022-09-09T18:13:52;21.60;67.80
43995;DHT22;51687;52.160;5.298;2022-09-09T18:16:20;21.60;67.80
43995;DHT22;51687;52.160;5.298;2022-09-09T18:18:51;21.60;68.00
43995;DHT22;51687;52.160;5.298;2022-09-09T18:21:19;21.60;67.80
43995;DHT22;51687;52.160;5.298;2022-09-09T18:23:46;21.60;67.70
43995;DHT22;51687;52.160;5.298;2022-09-09T18:26:21;21.60;67.70
43995;DHT22;51687;52.160;5.298;2022-09-09T18:28:50;21.60;67.60
43995;DHT22;51687;52.160;5.298;2022-09-09T18:31:21;21.60;67.70
43995;DHT22;51687;52.160;5.298;2022-09-09T18:33:51;21.60;67.50
43995;DHT22;51687;52.160;5.298;2022-09-09T18:36:28;21.60;67.40
43995;DHT22;51687;52.160;5.298;2022-09-09T18:38:56;21.50;67.40